KCUH/CUH METAR and TAF weather

Enter ICAO airport designator
Station Type Date Time Source
KCUH METAR 2020/07/13 14:15 UTC NOAA

KCUH 131415Z AUTO 07004KT 10SM SCT090 SCT120 22/20 A2989 RMK AO2 LTG DSNT E AND SE T02220196


Station Type Date Time Source
KCUH Decoded METAR 2020/07/13 14:15 UTC NOAA

Cushing, Cushing Municipal Airport, OK, United States (KCUH) 35-56-59N 096-46-22W
Jul 13, 2020 - 10:15 AM EDT / 2020.07.13 1415 UTC
Wind: from the ENE (070 degrees) at 5 MPH (4 KT):0
Visibility: 10 mile(s):0
Sky conditions: partly cloudy
Weather: Lightning observed
Temperature: 72.0 F (22.2 C)
Dew Point: 67.3 F (19.6 C)
Relative Humidity: 85%
Pressure (altimeter): 29.89 in. Hg (1012 hPa)
ob: KCUH 131415Z AUTO 07004KT 10SM SCT090 SCT120 22/20 A2989 RMK AO2 LTG DSNT E AND SE T02220196
cycle: 14

Station Type Date Time Source
KCUH TAF UTC NOAA

Error!

Example: see airport list